createdAt,value
2022-07-30T00:02:03.557Z,52.57
2022-07-30T00:04:32.383Z,51.64
2022-07-30T00:07:00.461Z,50.86
2022-07-30T00:09:28.401Z,50.64
2022-07-30T00:11:56.096Z,49.61
2022-07-30T00:14:23.828Z,48.71
2022-07-30T00:16:51.636Z,47.78
2022-07-30T00:19:21.730Z,47.49
2022-07-30T00:21:51.069Z,47.67
2022-07-30T00:24:18.806Z,47.48
2022-07-30T00:26:46.477Z,47.46
2022-07-30T00:29:14.306Z,47.08
2022-07-30T00:31:42.104Z,47.15
2022-07-30T00:34:09.872Z,47.37
2022-07-30T00:36:39.668Z,47.41
2022-07-30T00:39:07.525Z,47.33
2022-07-30T00:41:37.879Z,47.77
2022-07-30T00:44:05.974Z,48.26
2022-07-30T00:46:33.745Z,48.50
2022-07-30T00:49:01.456Z,48.43
2022-07-30T00:51:29.203Z,47.94
2022-07-30T00:53:58.261Z,47.89
2022-07-30T00:56:25.948Z,48.05
2022-07-30T00:58:53.684Z,47.81
2022-07-30T01:01:21.799Z,47.94
2022-07-30T01:03:49.625Z,47.90
2022-07-30T01:06:17.370Z,48.16
2022-07-30T01:08:45.055Z,48.10
2022-07-30T01:11:14.379Z,47.49
2022-07-30T01:13:42.450Z,47.71
2022-07-30T01:16:10.919Z,47.82
2022-07-30T01:18:58.486Z,47.96
2022-07-30T01:21:33.724Z,47.98
2022-07-30T01:24:28.439Z,48.54
2022-07-30T01:26:59.070Z,48.75
2022-07-30T01:29:30.146Z,48.93
2022-07-30T01:32:00.612Z,49.17
2022-07-30T01:34:30.749Z,49.32
2022-07-30T01:37:00.574Z,49.38
2022-07-30T01:39:30.219Z,49.43
2022-07-30T01:42:00.392Z,49.63
2022-07-30T01:44:28.916Z,49.17
2022-07-30T01:46:57.727Z,49.02
2022-07-30T01:49:28.435Z,48.55
2022-07-30T01:51:57.686Z,48.86
2022-07-30T01:54:28.348Z,48.62
2022-07-30T01:56:58.242Z,48.46
2022-07-30T01:59:29.249Z,48.32
2022-07-30T02:01:57.201Z,48.53
2022-07-30T02:04:25.015Z,48.34
2022-07-30T02:07:00.951Z,48.41
2022-07-30T02:09:32.939Z,48.24
2022-07-30T02:12:20.289Z,48.38
2022-07-30T02:14:54.683Z,48.00
2022-07-30T02:17:30.249Z,47.96
2022-07-30T02:20:09.328Z,48.27
2022-07-30T02:22:40.674Z,48.48
2022-07-30T02:25:11.431Z,48.80
2022-07-30T02:27:42.650Z,49.44
2022-07-30T02:30:13.398Z,49.79
2022-07-30T02:32:44.830Z,49.86
2022-07-30T02:35:16.850Z,50.05
2022-07-30T02:37:46.349Z,50.02
2022-07-30T02:40:16.874Z,49.83
2022-07-30T02:42:48.124Z,49.70
2022-07-30T02:45:19.066Z,49.41
2022-07-30T02:47:49.927Z,49.31
2022-07-30T02:50:20.076Z,49.83
2022-07-30T02:52:49.188Z,49.94
2022-07-30T02:55:17.964Z,49.97
2022-07-30T02:57:48.386Z,49.89
2022-07-30T03:00:16.882Z,49.50
2022-07-30T03:02:47.199Z,49.47
2022-07-30T03:05:17.083Z,49.97
2022-07-30T03:07:45.438Z,50.79
2022-07-30T03:10:14.687Z,51.31
2022-07-30T03:12:46.115Z,51.53
2022-07-30T03:15:15.232Z,51.02
2022-07-30T03:17:47.647Z,51.17
2022-07-30T03:20:20.084Z,51.30
2022-07-30T03:22:52.274Z,51.57
2022-07-30T03:25:24.575Z,51.42
2022-07-30T03:27:53.312Z,51.89
2022-07-30T03:30:21.591Z,52.06
2022-07-30T03:32:51.786Z,52.18
2022-07-30T03:35:21.808Z,52.72
2022-07-30T03:37:50.681Z,52.90
2022-07-30T03:40:19.614Z,52.75
2022-07-30T03:42:48.020Z,53.00
2022-07-30T03:45:16.854Z,52.50
2022-07-30T03:47:47.368Z,52.39
2022-07-30T03:50:16.621Z,52.27
2022-07-30T03:52:44.904Z,51.73
2022-07-30T03:55:13.824Z,51.75
2022-07-30T03:57:41.666Z,51.75
2022-07-30T04:00:14.870Z,51.45
2022-07-30T04:02:43.583Z,51.30
2022-07-30T04:05:13.191Z,51.41
2022-07-30T04:07:44.827Z,51.00
2022-07-30T04:10:13.352Z,51.30
2022-07-30T04:12:41.129Z,51.09
2022-07-30T04:16:34.312Z,52.13
2022-07-30T04:18:02.565Z,52.58
2022-07-30T04:20:33.978Z,52.85
2022-07-30T04:23:03.948Z,52.73
2022-07-30T04:25:32.869Z,51.94
2022-07-30T04:28:03.835Z,51.77
2022-07-30T04:30:33.278Z,52.03
2022-07-30T04:33:01.147Z,51.91
2022-07-30T04:35:50.827Z,52.18
2022-07-30T04:38:18.779Z,51.88
2022-07-30T04:40:47.091Z,52.02
2022-07-30T04:43:15.197Z,51.80
2022-07-30T04:45:43.095Z,51.62
2022-07-30T04:48:10.783Z,51.94
2022-07-30T04:50:43.244Z,52.01
2022-07-30T04:53:12.246Z,51.99
2022-07-30T04:55:43.377Z,51.80
2022-07-30T04:58:13.238Z,51.96
2022-07-30T05:00:44.191Z,52.14
2022-07-30T05:03:14.192Z,51.77
2022-07-30T05:05:42.351Z,52.32
2022-07-30T05:08:10.478Z,52.45
2022-07-30T05:10:39.495Z,52.34
2022-07-30T05:13:14.231Z,52.37
2022-07-30T05:15:42.300Z,52.03
2022-07-30T05:18:10.612Z,52.43
2022-07-30T05:20:38.571Z,52.29
2022-07-30T05:23:06.898Z,51.87
2022-07-30T05:25:34.645Z,51.61
2022-07-30T05:28:02.346Z,51.94
2022-07-30T05:30:31.331Z,51.93
2022-07-30T05:32:58.954Z,52.09
2022-07-30T05:35:31.282Z,52.28
2022-07-30T05:38:00.167Z,52.02
2022-07-30T05:40:28.048Z,51.77
2022-07-30T05:42:55.803Z,51.73
2022-07-30T05:45:23.506Z,51.29
2022-07-30T05:47:52.626Z,51.03
2022-07-30T05:50:20.409Z,51.48
2022-07-30T05:52:48.103Z,51.51
2022-07-30T05:55:15.993Z,50.94
2022-07-30T05:57:43.696Z,51.02
2022-07-30T06:00:13.481Z,51.29
2022-07-30T06:02:41.915Z,50.81
2022-07-30T06:05:11.179Z,50.83
2022-07-30T06:07:38.855Z,50.55
2022-07-30T06:10:07.452Z,50.61
2022-07-30T06:12:35.186Z,50.48
2022-07-30T06:15:02.880Z,50.26
2022-07-30T06:17:30.570Z,50.34
2022-07-30T06:20:00.507Z,49.97
2022-07-30T06:22:29.556Z,49.92
2022-07-30T06:24:57.268Z,50.07
2022-07-30T06:27:31.384Z,49.79
2022-07-30T06:30:00.232Z,50.01
2022-07-30T06:32:28.517Z,49.99
2022-07-30T06:35:03.932Z,49.92
2022-07-30T06:37:58.728Z,49.97
2022-07-30T06:40:21.468Z,49.64
2022-07-30T06:42:49.204Z,49.74
2022-07-30T06:45:16.980Z,49.70
2022-07-30T06:47:44.724Z,50.81
2022-07-30T06:50:12.803Z,50.37
2022-07-30T06:52:42.056Z,49.39
2022-07-30T06:55:09.934Z,49.31
2022-07-30T06:57:42.365Z,49.23
2022-07-30T07:00:11.464Z,49.33
2022-07-30T07:02:39.302Z,49.65
2022-07-30T07:05:08.083Z,50.04
2022-07-30T07:07:41.887Z,49.72
2022-07-30T07:10:12.529Z,49.83
2022-07-30T07:12:40.200Z,49.71
2022-07-30T07:15:09.744Z,49.83
2022-07-30T07:17:37.514Z,49.80
2022-07-30T07:20:06.239Z,49.40
2022-07-30T07:22:33.984Z,49.68
2022-07-30T07:25:01.816Z,49.43
2022-07-30T07:27:30.886Z,49.42
2022-07-30T07:30:01.520Z,48.54
2022-07-30T07:32:34.207Z,48.52
2022-07-30T07:35:02.199Z,48.42
2022-07-30T07:37:29.989Z,47.98
2022-07-30T07:39:58.186Z,47.63
2022-07-30T07:42:26.911Z,47.26
2022-07-30T07:44:56.022Z,47.02
2022-07-30T07:47:23.824Z,47.60
2022-07-30T07:49:51.572Z,47.88
2022-07-30T07:52:19.293Z,47.87
2022-07-30T07:54:47.002Z,47.79
2022-07-30T07:57:15.483Z,47.49
2022-07-30T07:59:43.260Z,47.55
2022-07-30T08:02:12.406Z,47.61
2022-07-30T08:04:40.292Z,47.57
2022-07-30T08:07:08.058Z,47.40
2022-07-30T08:09:42.017Z,47.72
2022-07-30T08:12:12.663Z,47.61
2022-07-30T08:14:40.383Z,47.46
2022-07-30T08:17:08.593Z,47.31
2022-07-30T08:19:38.012Z,47.19
2022-07-30T08:22:05.767Z,47.07
2022-07-30T08:24:33.674Z,47.07
2022-07-30T08:27:01.608Z,47.36
2022-07-30T08:29:30.135Z,47.26
2022-07-30T08:31:57.922Z,46.66
2022-07-30T08:34:25.974Z,46.23
2022-07-30T08:36:55.193Z,46.18
2022-07-30T08:39:22.951Z,46.44
2022-07-30T08:41:50.880Z,45.74
2022-07-30T08:44:21.777Z,44.49
2022-07-30T08:46:52.392Z,44.16
2022-07-30T08:49:20.363Z,44.42
2022-07-30T08:51:48.522Z,44.84
2022-07-30T08:54:17.860Z,44.91
2022-07-30T08:56:45.771Z,45.14
2022-07-30T08:59:14.251Z,44.96
2022-07-30T09:01:41.961Z,44.61
2022-07-30T09:04:09.783Z,44.85
2022-07-30T09:06:38.038Z,44.55
2022-07-30T09:09:05.691Z,44.20
2022-07-30T09:11:36.813Z,44.29
2022-07-30T09:14:11.964Z,43.41
2022-07-30T09:16:40.337Z,43.15
2022-07-30T09:19:16.406Z,42.92
2022-07-30T09:21:55.477Z,43.26
2022-07-30T09:24:23.296Z,41.87
2022-07-30T09:26:57.427Z,40.99
2022-07-30T09:29:26.924Z,41.31
2022-07-30T09:31:59.092Z,40.78
2022-07-30T09:34:29.427Z,40.30
2022-07-30T09:36:58.811Z,39.61
2022-07-30T09:39:31.401Z,39.57
2022-07-30T09:42:32.098Z,38.40
2022-07-30T09:45:06.869Z,37.84
2022-07-30T09:47:35.831Z,37.67
2022-07-30T09:50:07.014Z,37.75
2022-07-30T09:52:35.490Z,36.62
2022-07-30T09:55:03.607Z,36.20
2022-07-30T09:57:32.876Z,35.42
2022-07-30T10:00:18.906Z,35.80
2022-07-30T10:02:51.735Z,35.17
2022-07-30T10:05:21.303Z,34.62
2022-07-30T10:07:52.118Z,34.93
2022-07-30T10:10:25.246Z,35.04
2022-07-30T10:12:58.135Z,34.89
2022-07-30T10:15:28.945Z,35.08
2022-07-30T10:17:57.773Z,34.71
2022-07-30T10:20:26.165Z,34.95
2022-07-30T10:22:54.201Z,35.27
2022-07-30T10:25:27.661Z,34.69
2022-07-30T10:27:57.947Z,34.58
2022-07-30T10:30:27.814Z,34.50
2022-07-30T10:32:58.223Z,34.32
2022-07-30T10:35:34.523Z,34.75
2022-07-30T10:38:13.777Z,35.60
2022-07-30T10:40:49.442Z,35.34
2022-07-30T10:43:56.485Z,35.73
2022-07-30T10:46:38.447Z,35.24
2022-07-30T10:49:11.763Z,35.47
2022-07-30T10:51:48.426Z,35.40
2022-07-30T10:54:39.778Z,35.26
2022-07-30T10:57:14.689Z,34.22
2022-07-30T11:00:15.397Z,34.59
2022-07-30T11:03:40.448Z,34.12
2022-07-30T11:06:29.333Z,34.30
2022-07-30T11:08:58.135Z,35.41
2022-07-30T11:12:02.140Z,35.69
2022-07-30T11:15:07.212Z,35.90
2022-07-30T11:18:02.919Z,35.71
2022-07-30T11:20:32.970Z,35.47
2022-07-30T11:23:14.073Z,34.77
2022-07-30T11:25:52.017Z,33.99
2022-07-30T11:28:40.108Z,33.90
2022-07-30T11:31:30.579Z,33.86
2022-07-30T11:34:27.915Z,32.43
2022-07-30T11:37:18.214Z,32.54
2022-07-30T11:40:13.092Z,33.59
2022-07-30T11:42:43.160Z,33.99
2022-07-30T11:45:27.221Z,33.19
2022-07-30T11:47:57.757Z,33.63
2022-07-30T11:50:29.081Z,33.21
2022-07-30T11:52:58.575Z,33.14
2022-07-30T11:55:28.881Z,33.58
2022-07-30T11:57:56.729Z,33.15
2022-07-30T12:00:25.226Z,33.07
2022-07-30T12:02:53.411Z,33.25
2022-07-30T12:05:27.571Z,32.40
2022-07-30T12:08:00.117Z,33.23
2022-07-30T12:10:27.988Z,33.35
2022-07-30T12:13:08.639Z,33.31
2022-07-30T12:15:38.434Z,32.68
2022-07-30T12:20:59.349Z,32.98
2022-07-30T12:23:28.243Z,32.87
2022-07-30T12:25:56.914Z,32.22
2022-07-30T12:28:27.694Z,32.31
2022-07-30T12:30:56.887Z,32.56
2022-07-30T12:33:25.448Z,32.46
2022-07-30T12:35:54.859Z,32.60
2022-07-30T12:38:25.497Z,32.48
2022-07-30T12:40:58.876Z,32.41
2022-07-30T12:43:47.643Z,32.01
2022-07-30T12:46:17.783Z,32.41
2022-07-30T12:48:53.641Z,31.33
2022-07-30T12:51:24.142Z,31.81
2022-07-30T12:53:54.047Z,31.51
2022-07-30T12:56:24.654Z,32.25
2022-07-30T12:58:52.969Z,31.58
2022-07-30T13:01:39.681Z,31.52
2022-07-30T13:04:07.483Z,31.76
2022-07-30T13:06:35.319Z,31.99
2022-07-30T13:09:05.470Z,31.49
2022-07-30T13:11:40.091Z,31.35
2022-07-30T13:14:08.165Z,30.70
2022-07-30T13:16:37.619Z,30.74
2022-07-30T13:19:05.804Z,30.12
2022-07-30T13:21:33.783Z,30.62
2022-07-30T13:24:02.245Z,30.49
2022-07-30T13:26:31.581Z,29.41
2022-07-30T13:29:01.857Z,29.44
2022-07-30T13:31:42.635Z,28.92
2022-07-30T13:34:11.922Z,29.02
2022-07-30T13:36:39.634Z,28.62
2022-07-30T13:39:07.427Z,28.20
2022-07-30T13:41:36.981Z,28.16
2022-07-30T13:44:05.581Z,27.68
2022-07-30T13:46:33.441Z,28.15
2022-07-30T13:49:01.325Z,28.12
2022-07-30T13:51:29.102Z,27.33
2022-07-30T13:53:56.883Z,27.50
2022-07-30T13:56:24.643Z,26.99
2022-07-30T13:58:53.650Z,27.17
2022-07-30T14:01:21.491Z,27.09
2022-07-30T14:03:50.887Z,26.98
2022-07-30T14:06:18.932Z,27.10
2022-07-30T14:08:46.753Z,27.13
2022-07-30T14:11:15.575Z,27.09
2022-07-30T14:13:43.455Z,26.87
2022-07-30T14:16:35.177Z,26.70
2022-07-30T14:19:01.887Z,26.81
2022-07-30T14:21:29.605Z,27.33
2022-07-30T14:23:57.917Z,26.93
2022-07-30T14:26:25.838Z,26.72
2022-07-30T14:28:57.893Z,26.92
2022-07-30T14:31:27.000Z,27.51
2022-07-30T14:33:54.795Z,27.21
2022-07-30T14:36:23.283Z,26.98
2022-07-30T14:38:55.120Z,27.49
2022-07-30T14:41:24.724Z,27.63
2022-07-30T14:43:52.496Z,28.44
2022-07-30T14:46:20.536Z,28.55
2022-07-30T14:48:49.944Z,28.34
2022-07-30T14:51:21.924Z,28.88
2022-07-30T14:53:53.780Z,28.85
2022-07-30T14:56:23.973Z,29.02
2022-07-30T14:58:53.055Z,29.01
2022-07-30T15:01:20.802Z,29.27
2022-07-30T15:03:50.452Z,29.48
2022-07-30T15:06:18.147Z,29.21
2022-07-30T15:08:46.605Z,29.33
2022-07-30T15:11:14.534Z,29.36
2022-07-30T15:13:50.640Z,29.11
2022-07-30T15:16:18.915Z,28.69
2022-07-30T15:18:46.794Z,28.99
2022-07-30T15:21:15.818Z,28.79
2022-07-30T15:23:43.628Z,28.71
2022-07-30T15:26:11.557Z,28.68
2022-07-30T15:28:39.652Z,29.18
2022-07-30T15:31:07.342Z,29.71
2022-07-30T15:33:37.188Z,29.53
2022-07-30T15:36:05.504Z,29.66
2022-07-30T15:38:34.594Z,29.58
2022-07-30T15:41:02.263Z,29.93
2022-07-30T15:43:30.153Z,29.88
2022-07-30T15:45:58.034Z,29.70
2022-07-30T15:48:27.302Z,30.00
2022-07-30T15:51:00.675Z,29.72
2022-07-30T15:53:28.528Z,30.17
2022-07-30T15:55:58.005Z,30.21
2022-07-30T15:58:26.040Z,29.96
2022-07-30T16:00:53.818Z,29.85
2022-07-30T16:03:21.765Z,30.04
2022-07-30T16:05:51.638Z,30.40
2022-07-30T16:08:20.860Z,30.21
2022-07-30T16:10:51.837Z,30.38
2022-07-30T16:13:21.075Z,30.64
2022-07-30T16:15:48.800Z,30.99
2022-07-30T16:18:16.515Z,30.63
2022-07-30T16:20:44.279Z,30.30
2022-07-30T16:23:14.201Z,29.20
2022-07-30T16:25:44.741Z,29.47
2022-07-30T16:28:12.574Z,29.86
2022-07-30T16:30:51.477Z,29.73
2022-07-30T16:33:20.364Z,29.83
2022-07-30T16:35:49.399Z,30.11
2022-07-30T16:38:19.247Z,29.93
2022-07-30T16:40:47.010Z,29.82
2022-07-30T16:43:15.649Z,29.48
2022-07-30T16:45:48.026Z,29.52
2022-07-30T16:48:15.753Z,29.53
2022-07-30T16:50:43.953Z,29.88
2022-07-30T16:53:14.372Z,29.90
2022-07-30T16:55:42.583Z,29.72
2022-07-30T16:58:10.323Z,29.99
2022-07-30T17:00:38.147Z,29.91
2022-07-30T17:03:07.260Z,29.88
2022-07-30T17:05:35.025Z,29.71
2022-07-30T17:08:05.736Z,30.03
2022-07-30T17:10:37.256Z,30.28
2022-07-30T17:13:04.998Z,30.27
2022-07-30T17:15:33.371Z,29.90
2022-07-30T17:18:01.368Z,30.09
2022-07-30T17:20:30.677Z,30.64
2022-07-30T17:22:58.725Z,30.07
2022-07-30T17:25:28.199Z,30.81
2022-07-30T17:27:55.873Z,30.59
2022-07-30T17:30:24.312Z,30.31
2022-07-30T17:32:53.514Z,29.96
2022-07-30T17:35:21.530Z,29.62
2022-07-30T17:37:50.640Z,29.79
2022-07-30T17:40:28.902Z,29.84
2022-07-30T17:43:03.381Z,29.67
2022-07-30T17:45:31.641Z,29.53
2022-07-30T17:48:01.320Z,29.33
2022-07-30T17:50:29.135Z,29.15
2022-07-30T17:52:58.318Z,29.27
2022-07-30T17:55:27.874Z,28.43
2022-07-30T17:57:55.677Z,28.90
2022-07-30T18:00:23.787Z,28.44
2022-07-30T18:02:51.443Z,28.65
2022-07-30T18:05:19.669Z,29.12
2022-07-30T18:07:47.411Z,28.83
2022-07-30T18:10:16.476Z,29.04
2022-07-30T18:12:49.208Z,28.82
2022-07-30T18:15:17.707Z,29.49
2022-07-30T18:17:45.500Z,29.94
2022-07-30T18:20:13.789Z,29.85
2022-07-30T18:22:41.864Z,29.24
2022-07-30T18:25:12.328Z,29.43
2022-07-30T18:27:48.652Z,30.33
2022-07-30T18:30:16.934Z,29.80
2022-07-30T18:32:44.656Z,29.26
2022-07-30T18:35:14.767Z,29.65
2022-07-30T18:37:43.875Z,29.77
2022-07-30T18:40:13.186Z,29.64
2022-07-30T18:42:41.273Z,29.93
2022-07-30T18:45:13.902Z,30.51
2022-07-30T18:47:41.997Z,30.68
2022-07-30T18:50:11.238Z,30.35
2022-07-30T18:52:39.509Z,30.04
2022-07-30T18:55:08.347Z,29.71
2022-07-30T18:57:36.060Z,29.92
2022-07-30T19:00:05.763Z,29.90
2022-07-30T19:02:35.038Z,29.85
2022-07-30T19:05:02.862Z,29.91
2022-07-30T19:07:30.607Z,30.14
2022-07-30T19:10:18.974Z,30.14
2022-07-30T19:12:46.708Z,30.21
2022-07-30T19:15:14.432Z,30.20
2022-07-30T19:17:46.695Z,32.53
2022-07-30T19:20:14.649Z,35.09
2022-07-30T19:22:42.442Z,33.91
2022-07-30T19:25:11.151Z,34.26
2022-07-30T19:27:38.888Z,34.68
2022-07-30T19:30:08.008Z,34.07
2022-07-30T19:32:35.704Z,34.43
2022-07-30T19:35:05.433Z,33.54
2022-07-30T19:37:41.031Z,33.23
2022-07-30T19:40:09.637Z,33.58
2022-07-30T19:42:41.277Z,32.67
2022-07-30T19:45:12.126Z,32.41
2022-07-30T19:47:42.628Z,32.28
2022-07-30T19:50:12.933Z,32.58
2022-07-30T19:52:51.050Z,32.38
2022-07-30T19:55:35.093Z,32.59
2022-07-30T19:58:04.770Z,32.44
2022-07-30T20:00:44.633Z,32.80
2022-07-30T20:06:08.590Z,33.29
2022-07-30T20:08:44.852Z,33.53
2022-07-30T20:11:20.946Z,33.48
2022-07-30T20:13:52.069Z,33.74
2022-07-30T20:16:20.451Z,34.03
2022-07-30T20:18:49.701Z,34.20
2022-07-30T20:21:56.415Z,34.47
2022-07-30T20:24:11.394Z,34.88
2022-07-30T20:26:39.118Z,34.79
2022-07-30T20:29:09.232Z,35.08
2022-07-30T20:31:49.793Z,35.24
2022-07-30T20:34:35.614Z,35.19
2022-07-30T20:37:15.850Z,35.18
2022-07-30T20:39:50.374Z,35.17
2022-07-30T20:42:18.629Z,35.23
2022-07-30T20:44:49.418Z,35.33
2022-07-30T20:47:34.243Z,35.45
2022-07-30T20:50:06.047Z,35.83
2022-07-30T20:52:40.246Z,35.93
2022-07-30T20:55:09.676Z,35.64
2022-07-30T20:57:57.004Z,35.51
2022-07-30T21:00:28.991Z,36.70
2022-07-30T21:02:56.631Z,37.01
2022-07-30T21:05:27.035Z,37.10
2022-07-30T21:07:56.422Z,36.99
2022-07-30T21:10:28.369Z,36.76
2022-07-30T21:12:58.550Z,36.85
2022-07-30T21:15:32.759Z,36.17
2022-07-30T21:18:01.610Z,35.89
2022-07-30T21:20:29.792Z,35.79
2022-07-30T21:23:04.440Z,35.75
2022-07-30T21:25:33.407Z,36.11
2022-07-30T21:28:02.824Z,35.99
2022-07-30T21:30:32.885Z,36.16
2022-07-30T21:33:00.669Z,36.15
2022-07-30T21:35:31.639Z,36.14
2022-07-30T21:38:01.333Z,36.11
2022-07-30T21:40:29.400Z,36.17
2022-07-30T21:42:57.259Z,36.24
2022-07-30T21:45:37.848Z,36.36
2022-07-30T21:48:07.408Z,36.57
2022-07-30T21:50:35.118Z,36.84
2022-07-30T21:53:04.368Z,36.91
2022-07-30T21:55:33.487Z,36.82
2022-07-30T21:58:26.216Z,36.89
2022-07-30T22:01:16.195Z,36.87
2022-07-30T22:04:03.605Z,37.01
2022-07-30T22:06:33.572Z,36.89
2022-07-30T22:09:03.427Z,37.02
2022-07-30T22:11:42.451Z,36.98
2022-07-30T22:14:12.963Z,36.97
2022-07-30T22:16:45.943Z,36.89
2022-07-30T22:19:14.607Z,37.17
2022-07-30T22:21:42.783Z,36.86
2022-07-30T22:24:28.643Z,37.12
2022-07-30T22:26:59.966Z,36.94
2022-07-30T22:29:34.186Z,36.83
2022-07-30T22:32:03.952Z,36.86
2022-07-30T22:34:32.095Z,36.94
2022-07-30T22:36:59.814Z,37.27
2022-07-30T22:39:32.431Z,37.09
2022-07-30T22:42:16.575Z,37.04
2022-07-30T22:44:45.731Z,36.98
2022-07-30T22:47:18.842Z,37.11
2022-07-30T22:49:53.168Z,37.03
2022-07-30T22:52:27.207Z,37.14
2022-07-30T22:55:04.639Z,37.29
2022-07-30T22:57:37.689Z,37.71
2022-07-30T23:00:11.970Z,37.91
2022-07-30T23:02:39.986Z,37.74
2022-07-30T23:05:08.941Z,37.72
2022-07-30T23:07:39.618Z,37.67
2022-07-30T23:10:17.703Z,37.67
2022-07-30T23:12:15.733Z,32.89
2022-07-30T23:12:48.324Z,38.09
2022-07-30T23:15:16.367Z,38.45
2022-07-30T23:17:44.417Z,38.70
2022-07-30T23:20:14.869Z,39.13
2022-07-30T23:22:42.964Z,39.04
2022-07-30T23:25:12.841Z,39.06
2022-07-30T23:27:41.156Z,39.29
2022-07-30T23:30:11.080Z,39.27
2022-07-30T23:32:39.830Z,39.33
2022-07-30T23:35:09.364Z,39.34
2022-07-30T23:37:48.425Z,39.61
2022-07-30T23:40:18.879Z,39.60
2022-07-30T23:42:47.155Z,39.42
2022-07-30T23:45:14.918Z,39.98
2022-07-30T23:47:56.563Z,39.98
2022-07-30T23:50:30.548Z,39.96
2022-07-30T23:52:58.326Z,39.89
2022-07-30T23:55:28.039Z,39.80
2022-07-30T23:57:55.950Z,39.66
